PWSweather.com
Personal Weather Stations
Station Observations
WISCHPK61
Green Bay Schmitt Park, Green Bay, WI 54311

Green Bay Schmitt ParkGreen Bay, WI 54311

Lat: 44.514277, Lon: -87.935067

Elevation: 735

Station Type: Acu Rite Pro Weather Center model 02032C

http://greenbayweathercam.com

High Low Average
Temperature 41.2°F5.1°C 31.5°F-0.3°C 37.6°F3.1°C
Dew Point 40.4°F4.7°C 28.9°F-1.7°C 37.0°F2.8°C
Winds Calm Calm Calm Calm Calm SCalm S
Wind Gusts 1.2 mph1.9 kmh -- --
Humidity 99% 90% 98%
Pressure 29.07 in984.4 mb 28.98 in981.4 mb -
Precipitation 0.76 in19.3 mm - -
Hour Temp Dew Point Humidity Winds Wind Gusts Pressure Precip Precip Rate Daily Precip Total
12:00 AM 31.6°F-0.2°C 31.4°F-0.3°C 99% Calm Calm -- 29.09 in985.1 mb - 0.00 in0.0 mm 0.00 in0.0 mm
01:00 AM 31.5°F-0.3°C 28.9°F-1.7°C 90% Calm Calm -- 29.07 in984.4 mb - 0.00 in0.0 mm 0.00 in0.0 mm
02:00 AM 35.8°F2.1°C 35.0°F1.7°C 97% Calm Calm 1.2 mph1.9 kmh 29.03 in983.1 mb - 0.00 in0.0 mm 0.00 in0.0 mm
03:00 AM 37.0°F2.8°C 36.7°F2.6°C 99% Calm Calm -- 29.02 in982.7 mb - 0.11 in2.8 mm 0.11 in2.8 mm
04:00 AM 37.2°F2.9°C 36.9°F2.7°C 99% Calm Calm -- 29.00 in982.1 mb - 0.16 in4.1 mm 0.27 in6.9 mm
05:00 AM 37.8°F3.2°C 37.5°F3.1°C 99% Calm Calm -- 29.00 in982.1 mb - 0.13 in3.3 mm 0.39 in9.9 mm
06:00 AM 38.3°F3.5°C 38.0°F3.3°C 99% Calm Calm -- 29.00 in982.1 mb - 0.16 in4.1 mm 0.55 in14.0 mm
07:00 AM 38.7°F3.7°C 38.4°F3.6°C 99% Calm Calm -- 28.98 in981.4 mb - 0.08 in2.0 mm 0.63 in16.0 mm
08:00 AM 38.8°F3.8°C 38.3°F3.5°C 98% Calm Calm -- 28.99 in981.7 mb - 0.06 in1.5 mm 0.69 in17.5 mm
09:00 AM 38.3°F3.5°C 37.8°F3.2°C 98% Calm Calm -- 29.00 in982.1 mb - 0.03 in0.8 mm 0.72 in18.3 mm
10:00 AM 38.8°F3.8°C 38.5°F3.6°C 99% Calm Calm -- 29.01 in982.4 mb - 0.02 in0.5 mm 0.74 in18.8 mm
11:00 AM 37.6°F3.1°C 36.8°F2.7°C 97% Calm Calm -- 29.02 in982.7 mb - 0.01 in0.3 mm 0.75 in19.1 mm
12:00 PM 36.1°F2.3°C 35.8°F2.1°C 99% Calm Calm -- 29.02 in982.7 mb - 0.00 in0.0 mm 0.75 in19.1 mm
01:00 PM 38.0°F3.3°C 37.5°F3.1°C 98% Calm Calm -- 29.01 in982.4 mb - 0.00 in0.0 mm 0.75 in19.1 mm
02:00 PM 40.6°F4.8°C 39.5°F4.2°C 96% Calm Calm -- 29.00 in982.1 mb - 0.00 in0.0 mm 0.75 in19.1 mm
03:00 PM 41.2°F5.1°C 40.4°F4.7°C 97% Calm Calm -- 29.01 in982.4 mb - 0.00 in0.0 mm 0.75 in19.1 mm
04:00 PM 40.5°F4.7°C 40.2°F4.6°C 99% Calm Calm -- 29.00 in982.1 mb - 0.00 in0.0 mm 0.75 in19.1 mm
05:00 PM 39.9°F4.4°C 39.6°F4.2°C 99% Calm Calm -- 29.02 in982.7 mb - 0.00 in0.0 mm 0.75 in19.1 mm
06:00 PM 38.8°F3.8°C 38.3°F3.5°C 98% Calm Calm -- 29.02 in982.7 mb - 0.00 in0.0 mm 0.75 in19.1 mm
07:00 PM 38.8°F3.8°C 38.3°F3.5°C 98% Calm Calm -- 29.03 in983.1 mb - 0.00 in0.0 mm 0.75 in19.1 mm
08:00 PM 37.4°F3.0°C 37.1°F2.8°C 99% Calm Calm -- 29.04 in983.4 mb - 0.00 in0.0 mm 0.75 in19.1 mm
09:00 PM 37.2°F2.9°C 36.4°F2.4°C 97% Calm Calm -- 29.05 in983.7 mb - 0.00 in0.0 mm 0.75 in19.1 mm
10:00 PM 36.5°F2.5°C 36.2°F2.3°C 99% Calm Calm -- 29.06 in984.1 mb - 0.00 in0.0 mm 0.75 in19.1 mm
11:00 PM 34.5°F1.4°C 34.0°F1.1°C 98% Calm Calm -- 29.06 in984.1 mb - 0.00 in0.0 mm 0.75 in19.1 mm